createdAt,value
2022-09-02T00:01:41.304Z,2.30
2022-09-02T00:04:19.692Z,2.17
2022-09-02T00:06:48.996Z,2.22
2022-09-02T00:09:19.538Z,1.98
2022-09-02T00:11:50.660Z,1.95
2022-09-02T00:14:29.595Z,1.80
2022-09-02T00:16:56.892Z,2.20
2022-09-02T00:19:27.568Z,1.98
2022-09-02T00:21:56.557Z,2.60
2022-09-02T00:24:27.439Z,2.78
2022-09-02T00:26:56.695Z,2.60
2022-09-02T00:29:27.236Z,2.80
2022-09-02T00:31:54.462Z,3.25
2022-09-02T00:34:21.760Z,2.88
2022-09-02T00:36:48.777Z,2.50
2022-09-02T00:39:15.808Z,2.40
2022-09-02T00:41:44.630Z,2.03
2022-09-02T00:44:16.068Z,2.00
2022-09-02T00:46:43.414Z,2.03
2022-09-02T00:49:26.214Z,1.98
2022-09-02T00:52:16.091Z,2.17
2022-09-02T00:54:53.616Z,1.90
2022-09-02T00:57:27.243Z,1.73
2022-09-02T01:00:07.875Z,1.90
2022-09-02T01:02:37.732Z,2.13
2022-09-02T01:05:09.295Z,1.83
2022-09-02T01:07:39.647Z,2.10
2022-09-02T01:10:14.971Z,1.83
2022-09-02T01:12:42.624Z,2.30
2022-09-02T01:15:12.276Z,2.28
2022-09-02T01:17:47.938Z,2.15
2022-09-02T01:20:21.358Z,2.22
2022-09-02T01:22:55.088Z,2.03
2022-09-02T01:25:54.415Z,1.85
2022-09-02T01:28:22.072Z,1.90
2022-09-02T01:30:54.778Z,2.03
2022-09-02T01:33:25.404Z,1.98
2022-09-02T01:35:54.051Z,2.03
2022-09-02T01:38:22.279Z,1.80
2022-09-02T01:40:49.610Z,2.17
2022-09-02T01:43:24.217Z,1.77
2022-09-02T01:45:55.407Z,1.80
2022-09-02T01:48:25.364Z,2.47
2022-09-02T01:50:59.683Z,1.70
2022-09-02T01:53:27.641Z,1.85
2022-09-02T01:55:55.474Z,1.80
2022-09-02T01:58:23.279Z,1.77
2022-09-02T02:00:51.213Z,2.15
2022-09-02T02:03:18.751Z,1.90
2022-09-02T02:05:45.920Z,1.90
2022-09-02T02:08:16.288Z,2.15
2022-09-02T02:10:43.952Z,1.67
2022-09-02T02:13:13.760Z,1.65
2022-09-02T02:15:44.344Z,1.90
2022-09-02T02:18:12.078Z,1.60
2022-09-02T02:20:39.336Z,1.90
2022-09-02T02:23:07.291Z,1.75
2022-09-02T02:25:35.132Z,1.83
2022-09-02T02:28:03.317Z,2.05
2022-09-02T02:30:33.203Z,1.70
2022-09-02T02:33:01.331Z,1.90
2022-09-02T02:35:29.021Z,1.75
2022-09-02T02:37:56.618Z,2.35
2022-09-02T02:40:25.758Z,1.90
2022-09-02T02:42:54.141Z,2.13
2022-09-02T02:45:24.173Z,1.83
2022-09-02T02:47:52.286Z,1.90
2022-09-02T02:50:22.969Z,1.48
2022-09-02T02:52:51.716Z,1.60
2022-09-02T02:55:19.877Z,1.63
2022-09-02T02:57:47.058Z,1.90
2022-09-02T03:00:29.136Z,1.75
2022-09-02T03:03:11.698Z,1.75
2022-09-02T03:05:39.971Z,1.70
2022-09-02T03:08:09.803Z,1.67
2022-09-02T03:10:38.575Z,1.50
2022-09-02T03:13:05.882Z,2.05
2022-09-02T03:15:34.798Z,1.77
2022-09-02T03:18:01.856Z,1.70
2022-09-02T03:20:29.041Z,1.52
2022-09-02T03:23:00.496Z,1.77
2022-09-02T03:25:35.354Z,1.65
2022-09-02T03:28:05.621Z,1.70
2022-09-02T03:30:33.534Z,2.00
2022-09-02T03:33:05.833Z,1.52
2022-09-02T03:35:39.966Z,1.70
2022-09-02T03:38:07.520Z,1.60
2022-09-02T03:40:35.409Z,1.98
2022-09-02T03:43:03.869Z,1.45
2022-09-02T03:45:32.040Z,1.52
2022-09-02T03:48:04.550Z,1.92
2022-09-02T03:50:43.371Z,1.60
2022-09-02T03:53:19.464Z,1.63
2022-09-02T03:55:50.782Z,1.85
2022-09-02T03:58:19.866Z,1.70
2022-09-02T04:00:55.032Z,1.35
2022-09-02T04:03:24.181Z,1.60
2022-09-02T04:05:52.382Z,1.65
2022-09-02T04:08:20.930Z,1.40
2022-09-02T04:10:48.786Z,1.77
2022-09-02T04:13:16.482Z,1.55
2022-09-02T04:15:48.025Z,2.00
2022-09-02T04:18:17.738Z,2.00
2022-09-02T04:20:45.613Z,1.60
2022-09-02T04:23:13.339Z,1.83
2022-09-02T04:25:44.390Z,1.70
2022-09-02T04:28:13.074Z,1.87
2022-09-02T04:30:42.262Z,1.90
2022-09-02T04:33:10.672Z,1.60
2022-09-02T04:35:47.396Z,1.83
2022-09-02T04:38:16.840Z,1.77
2022-09-02T04:40:46.788Z,1.65
2022-09-02T04:43:14.999Z,2.00
2022-09-02T04:45:45.211Z,1.80
2022-09-02T04:48:14.546Z,2.22
2022-09-02T04:50:43.425Z,1.80
2022-09-02T04:53:11.015Z,1.77
2022-09-02T04:55:42.547Z,1.80
2022-09-02T04:58:11.943Z,1.77
2022-09-02T05:00:40.345Z,1.70
2022-09-02T05:03:11.704Z,2.00
2022-09-02T05:05:40.632Z,2.10
2022-09-02T05:08:10.006Z,1.73
2022-09-02T05:10:39.140Z,2.00
2022-09-02T05:13:06.743Z,1.60
2022-09-02T05:15:38.035Z,1.67
2022-09-02T05:18:05.038Z,2.03
2022-09-02T05:20:33.033Z,1.70
2022-09-02T05:23:00.100Z,1.35
2022-09-02T05:25:27.074Z,1.42
2022-09-02T05:27:54.527Z,1.60
2022-09-02T05:30:21.891Z,1.42
2022-09-02T05:32:49.901Z,1.90
2022-09-02T05:35:17.277Z,1.88
2022-09-02T05:37:44.298Z,1.77
2022-09-02T05:40:14.717Z,1.60
2022-09-02T05:42:43.466Z,1.83
2022-09-02T05:45:12.117Z,1.83
2022-09-02T05:47:43.837Z,1.50
2022-09-02T05:50:11.627Z,1.58
2022-09-02T05:52:43.179Z,1.70
2022-09-02T05:55:10.319Z,1.67
2022-09-02T05:57:39.388Z,1.52
2022-09-02T06:00:09.891Z,1.63
2022-09-02T06:02:43.837Z,1.48
2022-09-02T06:05:20.742Z,1.40
2022-09-02T06:07:58.436Z,1.60
2022-09-02T06:10:25.751Z,1.35
2022-09-02T06:12:53.408Z,1.60
2022-09-02T06:15:23.208Z,1.43
2022-09-02T06:17:50.402Z,1.50
2022-09-02T06:20:17.874Z,1.38
2022-09-02T06:22:46.560Z,1.50
2022-09-02T06:25:14.583Z,1.48
2022-09-02T06:27:41.718Z,1.58
2022-09-02T06:30:10.371Z,1.40
2022-09-02T06:32:37.362Z,1.17
2022-09-02T06:37:37.626Z,1.58
2022-09-02T06:40:06.082Z,1.40
2022-09-02T06:42:33.616Z,1.40
2022-09-02T06:45:10.815Z,1.50
2022-09-02T06:47:39.174Z,1.30
2022-09-02T06:50:06.776Z,1.48
2022-09-02T06:52:34.434Z,1.17
2022-09-02T06:55:01.784Z,1.85
2022-09-02T06:57:31.396Z,1.20
2022-09-02T07:00:07.941Z,1.67
2022-09-02T07:02:35.352Z,1.65
2022-09-02T07:05:09.877Z,1.52
2022-09-02T07:07:40.592Z,1.67
2022-09-02T07:10:14.032Z,1.35
2022-09-02T07:12:44.339Z,1.50
2022-09-02T07:15:14.401Z,1.40
2022-09-02T07:17:42.784Z,1.20
2022-09-02T07:20:14.681Z,1.50
2022-09-02T07:22:46.966Z,1.30
2022-09-02T07:25:17.581Z,1.30
2022-09-02T07:27:45.673Z,1.40
2022-09-02T07:30:14.308Z,1.40
2022-09-02T07:32:44.022Z,1.60
2022-09-02T07:35:11.107Z,1.45
2022-09-02T07:37:38.900Z,1.50
2022-09-02T07:40:11.444Z,1.35
2022-09-02T07:42:38.864Z,1.20
2022-09-02T07:45:07.052Z,1.20
2022-09-02T07:47:35.712Z,1.10
2022-09-02T07:50:22.187Z,1.35
2022-09-02T07:52:56.494Z,1.20
2022-09-02T07:57:54.425Z,1.40
2022-09-02T08:00:23.366Z,0.90
2022-09-02T08:02:52.172Z,1.40
2022-09-02T08:05:26.534Z,1.30
2022-09-02T08:07:53.648Z,1.23
2022-09-02T08:10:23.347Z,1.40
2022-09-02T08:12:50.704Z,1.40
2022-09-02T08:15:19.945Z,1.65
2022-09-02T08:17:48.499Z,1.10
2022-09-02T08:20:17.868Z,1.20
2022-09-02T08:22:48.889Z,1.77
2022-09-02T08:25:22.958Z,1.38
2022-09-02T08:27:50.009Z,1.42
2022-09-02T08:30:17.078Z,1.27
2022-09-02T08:32:44.051Z,1.30
2022-09-02T08:35:11.673Z,1.73
2022-09-02T08:37:39.094Z,1.13
2022-09-02T08:40:16.786Z,1.20
2022-09-02T08:42:51.157Z,1.10
2022-09-02T08:45:30.230Z,1.30
2022-09-02T08:48:23.758Z,1.27
2022-09-02T08:50:58.752Z,1.05
2022-09-02T08:53:54.381Z,1.20
2022-09-02T08:56:21.336Z,0.85
2022-09-02T08:59:02.177Z,1.08
2022-09-02T09:02:02.550Z,1.30
2022-09-02T09:04:56.697Z,1.30
2022-09-02T09:07:56.323Z,0.90
2022-09-02T09:10:56.789Z,1.40
2022-09-02T09:13:58.593Z,1.10
2022-09-02T09:16:56.170Z,1.20
2022-09-02T09:19:51.486Z,1.02
2022-09-02T09:22:37.341Z,0.90
2022-09-02T09:25:12.450Z,0.90
2022-09-02T09:27:39.851Z,0.90
2022-09-02T09:30:14.866Z,0.88
2022-09-02T09:32:46.304Z,1.10
2022-09-02T09:35:16.547Z,1.00
2022-09-02T09:37:50.291Z,0.80
2022-09-02T09:40:30.922Z,1.10
2022-09-02T09:43:05.720Z,1.00
2022-09-02T09:45:51.486Z,0.93
2022-09-02T09:48:30.668Z,1.20
2022-09-02T09:50:57.494Z,0.90
2022-09-02T09:53:32.291Z,0.77
2022-09-02T09:56:06.488Z,1.00
2022-09-02T09:58:40.025Z,0.80
2022-09-02T10:01:33.428Z,1.10
2022-09-02T10:04:20.632Z,0.85
2022-09-02T10:06:53.190Z,0.85
2022-09-02T10:09:20.097Z,0.70
2022-09-02T10:12:08.627Z,0.70
2022-09-02T10:14:41.818Z,0.60
2022-09-02T10:17:40.246Z,0.80
2022-09-02T10:21:04.861Z,0.82
2022-09-02T10:24:00.638Z,0.63
2022-09-02T10:26:43.443Z,0.60
2022-09-02T10:29:49.626Z,0.73
2022-09-02T10:32:46.696Z,0.90
2022-09-02T10:35:37.967Z,0.75
2022-09-02T10:38:44.736Z,1.00
2022-09-02T10:45:01.231Z,0.75
2022-09-02T10:47:38.137Z,0.60
2022-09-02T10:50:53.357Z,0.65
2022-09-02T10:53:26.359Z,0.75
2022-09-02T10:56:15.964Z,1.10
2022-09-02T10:59:01.479Z,0.60
2022-09-02T11:01:36.881Z,0.57
2022-09-02T11:04:16.604Z,0.55
2022-09-02T11:07:02.549Z,0.63
2022-09-02T11:09:37.449Z,1.02
2022-09-02T11:12:32.231Z,0.82
2022-09-02T11:15:21.987Z,0.80
2022-09-02T11:21:13.978Z,0.68
2022-09-02T11:24:05.025Z,0.95
2022-09-02T11:27:20.207Z,1.02
2022-09-02T11:30:23.303Z,0.73
2022-09-02T11:33:12.979Z,0.68
2022-09-02T11:35:40.044Z,0.70
2022-09-02T11:38:32.425Z,0.57
2022-09-02T11:42:06.638Z,0.60
2022-09-02T11:45:39.124Z,0.68
2022-09-02T11:48:33.194Z,0.70
2022-09-02T11:51:23.617Z,0.73
2022-09-02T11:53:54.877Z,1.00
2022-09-02T11:56:30.385Z,1.05
2022-09-02T11:58:57.506Z,0.80
2022-09-02T12:01:47.688Z,0.73
2022-09-02T12:07:08.679Z,0.70
2022-09-02T12:09:54.946Z,0.80
2022-09-02T12:12:37.084Z,0.47
2022-09-02T12:15:08.078Z,0.50
2022-09-02T12:17:50.819Z,0.60
2022-09-02T12:20:36.315Z,0.65
2022-09-02T12:23:03.959Z,0.93
2022-09-02T12:25:34.040Z,0.70
2022-09-02T12:31:15.475Z,0.80
2022-09-02T12:33:49.250Z,0.63
2022-09-02T12:36:41.396Z,0.57
2022-09-02T12:39:35.491Z,0.50
2022-09-02T12:42:07.100Z,0.60
2022-09-02T12:45:13.088Z,0.57
2022-09-02T12:47:49.002Z,0.63
2022-09-02T12:50:50.606Z,0.60
2022-09-02T12:53:23.475Z,0.63
2022-09-02T12:56:06.907Z,0.55
2022-09-02T12:58:41.300Z,0.65
2022-09-02T13:01:16.686Z,0.60
2022-09-02T13:04:23.231Z,0.80
2022-09-02T13:08:10.398Z,0.47
2022-09-02T13:11:31.380Z,0.85
2022-09-02T13:14:43.592Z,0.50
2022-09-02T13:17:37.198Z,0.85
2022-09-02T13:20:59.179Z,0.77
2022-09-02T13:23:35.471Z,0.57
2022-09-02T13:26:48.276Z,0.57
2022-09-02T13:30:04.630Z,0.52
2022-09-02T13:32:33.983Z,0.52
2022-09-02T13:35:16.364Z,0.50
2022-09-02T13:37:59.697Z,0.57
2022-09-02T13:40:34.702Z,0.47
2022-09-02T13:43:13.767Z,0.55
2022-09-02T13:45:42.094Z,0.40
2022-09-02T13:48:18.715Z,0.60
2022-09-02T13:50:52.063Z,0.80
2022-09-02T13:53:45.714Z,0.68
2022-09-02T13:56:28.209Z,0.40
2022-09-02T13:58:58.844Z,0.57
2022-09-02T14:01:39.820Z,0.55
2022-09-02T14:04:14.257Z,0.47
2022-09-02T14:06:46.393Z,0.90
2022-09-02T14:09:28.996Z,0.70
2022-09-02T14:11:58.750Z,0.50
2022-09-02T14:14:26.638Z,0.70
2022-09-02T14:17:24.637Z,0.57
2022-09-02T14:20:07.658Z,0.40
2022-09-02T14:22:35.912Z,0.68
2022-09-02T14:25:15.111Z,0.60
2022-09-02T14:28:18.992Z,0.70
2022-09-02T14:30:57.961Z,0.75
2022-09-02T14:33:28.217Z,0.50
2022-09-02T14:36:17.858Z,0.60
2022-09-02T14:38:47.523Z,0.43
2022-09-02T14:41:17.399Z,0.63
2022-09-02T14:43:49.360Z,0.50
2022-09-02T14:46:39.353Z,0.70
2022-09-02T14:49:33.218Z,0.60
2022-09-02T14:52:10.430Z,0.57
2022-09-02T14:54:41.308Z,0.68
2022-09-02T14:57:28.422Z,0.60
2022-09-02T14:59:58.125Z,0.52
2022-09-02T15:02:27.966Z,0.40
2022-09-02T15:04:57.402Z,0.93
2022-09-02T15:07:25.656Z,0.60
2022-09-02T15:09:52.850Z,0.60
2022-09-02T15:12:29.551Z,0.60
2022-09-02T15:14:57.901Z,0.40
2022-09-02T15:17:26.112Z,0.50
2022-09-02T15:19:53.065Z,0.43
2022-09-02T15:22:21.260Z,0.55
2022-09-02T15:24:49.194Z,0.50
2022-09-02T15:27:17.302Z,0.70
2022-09-02T15:29:48.976Z,0.80
2022-09-02T15:32:16.335Z,0.55
2022-09-02T15:34:43.443Z,0.60
2022-09-02T15:37:13.035Z,0.70
2022-09-02T15:39:41.182Z,0.80
2022-09-02T15:42:08.327Z,0.73
2022-09-02T15:44:35.293Z,0.50
2022-09-02T15:47:02.644Z,0.43
2022-09-02T15:49:30.630Z,0.60
2022-09-02T15:51:58.619Z,0.55
2022-09-02T15:54:25.602Z,0.40
2022-09-02T15:56:58.799Z,0.50
2022-09-02T15:59:27.396Z,0.50
2022-09-02T16:01:58.398Z,0.65
2022-09-02T16:04:27.251Z,0.32
2022-09-02T16:06:54.534Z,0.60
2022-09-02T16:09:22.155Z,1.00
2022-09-02T16:11:53.653Z,0.90
2022-09-02T16:14:23.327Z,0.60
2022-09-02T16:16:54.687Z,0.80
2022-09-02T16:19:24.165Z,0.55
2022-09-02T16:21:52.218Z,0.50
2022-09-02T16:24:21.379Z,0.73
2022-09-02T16:26:49.497Z,0.50
2022-09-02T16:29:17.794Z,0.50
2022-09-02T16:32:01.832Z,0.50
2022-09-02T16:34:34.691Z,0.65
2022-09-02T16:37:01.690Z,0.77
2022-09-02T16:39:28.748Z,0.60
2022-09-02T16:41:55.764Z,0.65
2022-09-02T16:44:25.192Z,0.70
2022-09-02T16:46:53.619Z,0.50
2022-09-02T16:49:22.097Z,0.70
2022-09-02T16:51:57.814Z,0.68
2022-09-02T16:54:31.479Z,0.60
2022-09-02T16:57:00.868Z,0.47
2022-09-02T16:59:27.987Z,0.80
2022-09-02T17:01:55.303Z,0.63
2022-09-02T17:04:22.449Z,0.82
2022-09-02T17:06:49.694Z,0.45
2022-09-02T17:09:16.780Z,0.47
2022-09-02T17:11:45.299Z,0.57
2022-09-02T17:14:18.347Z,0.47
2022-09-02T17:16:49.326Z,0.63
2022-09-02T17:19:21.812Z,0.70
2022-09-02T17:21:52.059Z,0.57
2022-09-02T17:24:25.695Z,0.80
2022-09-02T17:26:58.283Z,0.55
2022-09-02T17:29:49.073Z,0.60
2022-09-02T17:32:17.592Z,0.50
2022-09-02T17:34:44.925Z,0.55
2022-09-02T17:37:11.938Z,0.30
2022-09-02T17:39:39.002Z,0.70
2022-09-02T17:42:06.984Z,0.60
2022-09-02T17:44:43.174Z,0.47
2022-09-02T17:47:19.925Z,0.60
2022-09-02T17:49:47.900Z,0.70
2022-09-02T17:52:18.781Z,0.55
2022-09-02T17:54:52.794Z,0.70
2022-09-02T17:57:50.499Z,0.60
2022-09-02T18:00:26.558Z,0.85
2022-09-02T18:03:33.030Z,0.70
2022-09-02T18:06:19.753Z,0.60
2022-09-02T18:09:07.270Z,0.40
2022-09-02T18:11:38.685Z,0.50
2022-09-02T18:14:47.601Z,0.70
2022-09-02T18:17:52.595Z,0.73
2022-09-02T18:20:43.403Z,0.80
2022-09-02T18:23:31.770Z,0.90
2022-09-02T18:26:41.302Z,0.50
2022-09-02T18:29:26.964Z,0.73
2022-09-02T18:33:02.822Z,0.60
2022-09-02T18:36:08.935Z,0.60
2022-09-02T18:39:23.521Z,0.73
2022-09-02T18:42:40.768Z,0.70
2022-09-02T18:45:20.871Z,0.60
2022-09-02T18:48:19.399Z,0.65
2022-09-02T18:50:56.896Z,0.60
2022-09-02T18:53:32.133Z,0.77
2022-09-02T18:56:07.150Z,0.70
2022-09-02T18:58:46.088Z,0.70
2022-09-02T19:01:29.934Z,0.70
2022-09-02T19:03:59.850Z,0.70
2022-09-02T19:06:35.996Z,0.55
2022-09-02T19:09:14.223Z,0.60
2022-09-02T19:11:41.890Z,0.52
2022-09-02T19:14:08.706Z,0.50
2022-09-02T19:16:38.855Z,0.63
2022-09-02T19:19:10.359Z,0.90
2022-09-02T19:21:48.041Z,1.08
2022-09-02T19:24:24.719Z,0.93
2022-09-02T19:27:09.051Z,0.68
2022-09-02T19:29:41.194Z,1.15
2022-09-02T19:32:08.547Z,0.65
2022-09-02T19:34:39.590Z,1.27
2022-09-02T19:37:07.473Z,0.75
2022-09-02T19:39:35.149Z,0.70
2022-09-02T19:42:02.168Z,0.80
2022-09-02T19:44:29.236Z,0.95
2022-09-02T19:47:49.869Z,0.90
2022-09-02T19:49:44.269Z,0.68
2022-09-02T19:52:11.646Z,0.63
2022-09-02T19:54:38.789Z,0.70
2022-09-02T19:57:05.806Z,0.60
2022-09-02T19:59:33.107Z,0.60
2022-09-02T20:02:00.369Z,0.70
2022-09-02T20:04:29.953Z,1.00
2022-09-02T20:06:58.852Z,0.85
2022-09-02T20:09:29.386Z,0.60
2022-09-02T20:11:56.901Z,0.60
2022-09-02T20:14:23.989Z,0.70
2022-09-02T20:17:00.108Z,0.88
2022-09-02T20:19:27.916Z,0.70
2022-09-02T20:21:54.911Z,0.80
2022-09-02T20:24:29.962Z,0.70
2022-09-02T20:27:12.609Z,0.52
2022-09-02T20:30:07.474Z,0.55
2022-09-02T20:32:59.627Z,0.60
2022-09-02T20:35:58.024Z,0.60
2022-09-02T20:38:46.064Z,1.35
2022-09-02T20:41:40.003Z,0.85
2022-09-02T20:44:41.185Z,0.70
2022-09-02T20:47:29.988Z,0.52
2022-09-02T20:50:06.176Z,0.70
2022-09-02T20:53:09.735Z,0.80
2022-09-02T20:55:49.849Z,0.60
2022-09-02T20:59:14.230Z,1.00
2022-09-02T21:01:45.348Z,1.38
2022-09-02T21:04:24.282Z,0.88
2022-09-02T21:07:17.271Z,0.90
2022-09-02T21:10:08.407Z,0.50
2022-09-02T21:13:20.011Z,1.23
2022-09-02T21:15:56.054Z,0.70
2022-09-02T21:18:56.160Z,1.00
2022-09-02T21:21:35.059Z,0.75
2022-09-02T21:24:32.463Z,0.50
2022-09-02T21:27:20.476Z,0.60
2022-09-02T21:30:07.635Z,0.65
2022-09-02T21:32:44.707Z,0.60
2022-09-02T21:35:24.088Z,0.52
2022-09-02T21:38:03.570Z,0.40
2022-09-02T21:40:49.260Z,0.65
2022-09-02T21:43:32.102Z,0.52
2022-09-02T21:46:27.230Z,0.60
2022-09-02T21:49:26.160Z,0.90
2022-09-02T21:52:06.668Z,0.80
2022-09-02T21:54:47.959Z,0.60
2022-09-02T21:57:47.109Z,0.68
2022-09-02T22:00:17.583Z,0.55
2022-09-02T22:03:21.812Z,0.60
2022-09-02T22:06:01.716Z,0.60
2022-09-02T22:09:04.523Z,0.50
2022-09-02T22:11:35.130Z,0.70
2022-09-02T22:16:56.048Z,0.70
2022-09-02T22:19:30.102Z,0.50
2022-09-02T22:22:08.862Z,0.45
2022-09-02T22:24:37.393Z,0.65
2022-09-02T22:27:17.470Z,1.33
2022-09-02T22:30:01.892Z,0.60
2022-09-02T22:32:35.663Z,0.80
2022-09-02T22:35:31.446Z,0.60
2022-09-02T22:38:27.467Z,0.55
2022-09-02T22:41:01.152Z,0.68
2022-09-02T22:43:42.930Z,0.75
2022-09-02T22:46:40.924Z,0.55
2022-09-02T22:49:38.599Z,0.80
2022-09-02T22:52:44.802Z,0.70
2022-09-02T22:56:06.040Z,0.73
2022-09-02T22:58:42.035Z,0.50
2022-09-02T23:01:51.589Z,0.50
2022-09-02T23:04:39.746Z,0.73
2022-09-02T23:07:07.474Z,0.70
2022-09-02T23:09:38.678Z,0.60
2022-09-02T23:12:41.231Z,0.73
2022-09-02T23:15:36.855Z,0.60
2022-09-02T23:18:17.129Z,0.80
2022-09-02T23:20:55.878Z,0.52
2022-09-02T23:23:45.540Z,0.80
2022-09-02T23:27:03.420Z,0.75
2022-09-02T23:29:31.260Z,0.40
2022-09-02T23:32:25.127Z,0.82
2022-09-02T23:35:28.079Z,0.90
2022-09-02T23:38:35.157Z,0.70
2022-09-02T23:41:09.824Z,0.60
2022-09-02T23:43:39.469Z,0.65
2022-09-02T23:46:31.244Z,0.75
2022-09-02T23:49:35.263Z,0.60
2022-09-02T23:52:28.975Z,0.75
2022-09-02T23:55:23.980Z,0.50
2022-09-02T23:58:19.693Z,0.43
